Station: EBLG - 24/07/2021 04:20Z (il y a 29 minutes)
EBLG 240420Z 14005KT CAVOK 17/14 Q1010 NOSIG
Vent du 140º - 5 kt
Visibilité > 10 km et plafond haut ou pas de nuages significatifs
Température: +17ºC - Point de rosée: +14ºC - QNH: 1010 hPa
Pas de changement significatif prévu dans les 2 heures qui suivent l'observation